createdAt,value
2023-05-14T00:01:17.963Z,18.15
2023-05-14T00:03:46.777Z,17.95
2023-05-14T00:06:14.266Z,18.01
2023-05-14T00:08:41.709Z,18.23
2023-05-14T00:11:09.888Z,18.43
2023-05-14T00:13:37.634Z,18.53
2023-05-14T00:16:05.478Z,18.58
2023-05-14T00:18:33.547Z,18.47
2023-05-14T00:21:02.336Z,18.27
2023-05-14T00:23:29.847Z,18.33
2023-05-14T00:25:57.281Z,18.19
2023-05-14T00:28:24.683Z,18.27
2023-05-14T00:30:52.614Z,18.34
2023-05-14T00:33:20.038Z,18.48
2023-05-14T00:35:47.525Z,18.24
2023-05-14T00:38:19.317Z,18.33
2023-05-14T00:40:51.257Z,18.37
2023-05-14T00:43:19.234Z,18.27
2023-05-14T00:45:47.129Z,17.97
2023-05-14T00:48:14.859Z,17.96
2023-05-14T00:50:42.817Z,17.82
2023-05-14T00:53:11.443Z,18.00
2023-05-14T00:55:42.765Z,17.94
2023-05-14T00:58:11.967Z,17.71
2023-05-14T01:00:41.164Z,17.66
2023-05-14T01:03:09.566Z,17.70
2023-05-14T01:05:44.841Z,17.58
2023-05-14T01:08:20.120Z,17.42
2023-05-14T01:10:53.487Z,17.72
2023-05-14T01:13:28.317Z,17.65
2023-05-14T01:15:59.291Z,17.78
2023-05-14T01:18:29.474Z,17.65
2023-05-14T01:20:56.908Z,17.53
2023-05-14T01:23:25.745Z,17.38
2023-05-14T01:25:53.173Z,17.42
2023-05-14T01:28:26.210Z,17.54
2023-05-14T01:30:57.843Z,17.36
2023-05-14T01:33:28.537Z,17.57
2023-05-14T01:35:56.627Z,17.53
2023-05-14T01:38:27.558Z,17.50
2023-05-14T01:40:56.134Z,17.39
2023-05-14T01:43:24.126Z,17.26
2023-05-14T01:45:51.635Z,17.53
2023-05-14T01:48:19.096Z,17.31
2023-05-14T01:50:46.518Z,17.10
2023-05-14T01:53:14.059Z,17.05
2023-05-14T01:55:42.781Z,16.94
2023-05-14T01:58:10.236Z,17.01
2023-05-14T02:00:38.258Z,17.18
2023-05-14T02:03:05.950Z,16.95
2023-05-14T02:05:33.410Z,17.20
2023-05-14T02:08:01.099Z,16.81
2023-05-14T02:10:28.650Z,16.95
2023-05-14T02:12:57.381Z,16.86
2023-05-14T02:15:24.844Z,17.18
2023-05-14T02:17:52.255Z,16.98
2023-05-14T02:20:19.718Z,17.66
2023-05-14T02:22:47.129Z,17.67
2023-05-14T02:25:14.579Z,17.70
2023-05-14T02:27:42.109Z,17.52
2023-05-14T02:30:12.629Z,17.38
2023-05-14T02:32:40.174Z,17.57
2023-05-14T02:35:08.442Z,17.32
2023-05-14T02:37:35.890Z,17.42
2023-05-14T02:40:04.386Z,17.45
2023-05-14T02:42:32.283Z,17.42
2023-05-14T02:44:59.707Z,17.26
2023-05-14T02:47:28.471Z,17.16
2023-05-14T02:49:55.920Z,17.19
2023-05-14T02:52:23.344Z,16.87
2023-05-14T02:54:50.765Z,17.16
2023-05-14T02:57:18.200Z,16.40
2023-05-14T02:59:45.585Z,16.59
2023-05-14T03:02:13.567Z,16.75
2023-05-14T03:04:42.745Z,16.89
2023-05-14T03:07:10.180Z,17.05
2023-05-14T03:09:38.367Z,17.26
2023-05-14T03:12:06.670Z,17.18
2023-05-14T03:14:34.116Z,17.30
2023-05-14T03:17:01.702Z,17.47
2023-05-14T03:19:29.143Z,17.41
2023-05-14T03:21:57.885Z,17.44
2023-05-14T03:24:25.294Z,17.57
2023-05-14T03:26:53.287Z,17.47
2023-05-14T03:29:20.688Z,17.53
2023-05-14T03:31:48.120Z,17.91
2023-05-14T03:34:15.525Z,17.89
2023-05-14T03:36:43.030Z,17.74
2023-05-14T03:39:11.739Z,17.69
2023-05-14T03:41:39.303Z,17.55
2023-05-14T03:44:06.718Z,17.51
2023-05-14T03:46:34.135Z,17.40
2023-05-14T03:49:01.676Z,17.74
2023-05-14T03:51:29.216Z,17.82
2023-05-14T03:53:57.986Z,17.69
2023-05-14T03:56:26.981Z,17.59
2023-05-14T03:58:54.714Z,17.48
2023-05-14T04:01:22.143Z,17.71
2023-05-14T04:03:49.737Z,17.84
2023-05-14T04:06:17.220Z,17.81
2023-05-14T04:08:44.648Z,17.47
2023-05-14T04:11:12.135Z,17.87
2023-05-14T04:13:40.850Z,17.91
2023-05-14T04:16:08.430Z,17.85
2023-05-14T04:18:36.023Z,18.10
2023-05-14T04:21:03.782Z,18.19
2023-05-14T04:23:31.768Z,18.37
2023-05-14T04:25:59.289Z,18.46
2023-05-14T04:28:26.702Z,18.28
2023-05-14T04:30:55.492Z,18.55
2023-05-14T04:33:22.908Z,18.38
2023-05-14T04:35:50.307Z,18.40
2023-05-14T04:38:17.715Z,18.34
2023-05-14T04:40:45.121Z,18.30
2023-05-14T04:43:12.548Z,18.23
2023-05-14T04:45:40.935Z,18.16
2023-05-14T04:48:09.826Z,18.16
2023-05-14T04:50:37.313Z,18.60
2023-05-14T04:53:04.731Z,18.94
2023-05-14T04:55:32.362Z,19.02
2023-05-14T04:57:59.816Z,19.02
2023-05-14T05:00:27.397Z,19.08
2023-05-14T05:02:55.002Z,19.25
2023-05-14T05:05:24.601Z,19.34
2023-05-14T05:07:52.073Z,18.41
2023-05-14T05:10:19.518Z,18.76
2023-05-14T05:12:46.965Z,19.00
2023-05-14T05:15:14.382Z,19.12
2023-05-14T05:17:41.958Z,18.98
2023-05-14T05:20:10.408Z,19.58
2023-05-14T05:22:39.179Z,18.99
2023-05-14T05:25:08.081Z,19.08
2023-05-14T05:27:35.564Z,19.24
2023-05-14T05:30:03.942Z,19.58
2023-05-14T05:32:31.924Z,19.54
2023-05-14T05:34:59.433Z,20.04
2023-05-14T05:37:26.991Z,20.55
2023-05-14T05:39:55.736Z,21.66
2023-05-14T05:42:23.446Z,22.12
2023-05-14T05:44:50.824Z,22.38
2023-05-14T05:47:18.395Z,22.61
2023-05-14T05:49:45.819Z,21.46
2023-05-14T05:52:13.376Z,21.62
2023-05-14T05:54:40.805Z,20.45
2023-05-14T05:57:09.590Z,20.17
2023-05-14T05:59:37.300Z,20.45
2023-05-14T06:02:05.083Z,20.40
2023-05-14T06:04:32.588Z,20.04
2023-05-14T06:07:00.052Z,20.48
2023-05-14T06:09:27.475Z,20.81
2023-05-14T06:11:54.888Z,20.39
2023-05-14T06:14:23.678Z,20.62
2023-05-14T06:16:51.114Z,21.23
2023-05-14T06:19:18.714Z,20.34
2023-05-14T06:21:46.258Z,20.42
2023-05-14T06:24:13.963Z,20.16
2023-05-14T06:26:41.352Z,20.04
2023-05-14T06:29:08.772Z,20.14
2023-05-14T06:31:37.568Z,20.41
2023-05-14T06:34:05.026Z,19.60
2023-05-14T06:36:32.424Z,19.76
2023-05-14T06:38:59.832Z,20.15
2023-05-14T06:41:27.262Z,19.98
2023-05-14T06:43:55.238Z,19.80
2023-05-14T06:46:22.828Z,19.70
2023-05-14T06:48:51.573Z,19.78
2023-05-14T06:51:19.025Z,19.21
2023-05-14T06:53:46.776Z,19.90
2023-05-14T06:56:14.724Z,20.45
2023-05-14T06:58:42.169Z,20.59
2023-05-14T07:01:09.601Z,20.48
2023-05-14T07:03:37.105Z,20.35
2023-05-14T07:06:06.693Z,19.67
2023-05-14T07:08:34.099Z,19.57
2023-05-14T07:11:01.658Z,19.54
2023-05-14T07:13:29.090Z,19.66
2023-05-14T07:15:56.794Z,20.11
2023-05-14T07:18:24.378Z,20.02
2023-05-14T07:20:51.760Z,19.66
2023-05-14T07:23:20.575Z,19.61
2023-05-14T07:25:48.055Z,19.72
2023-05-14T07:28:17.949Z,20.42
2023-05-14T07:30:45.349Z,20.41
2023-05-14T07:33:12.747Z,20.17
2023-05-14T07:35:43.053Z,20.27
2023-05-14T07:38:10.612Z,20.22
2023-05-14T07:40:39.335Z,20.89
2023-05-14T07:43:06.755Z,20.83
2023-05-14T07:45:34.169Z,21.23
2023-05-14T07:48:01.838Z,21.63
2023-05-14T07:50:29.422Z,21.74
2023-05-14T07:52:56.838Z,21.89
2023-05-14T07:55:24.523Z,21.07
2023-05-14T07:57:53.301Z,20.21
2023-05-14T08:00:20.845Z,21.13
2023-05-14T08:02:49.135Z,21.22
2023-05-14T08:05:16.699Z,21.35
2023-05-14T08:07:44.311Z,21.75
2023-05-14T08:10:12.239Z,21.79
2023-05-14T08:12:39.870Z,22.13
2023-05-14T08:15:10.066Z,22.54
2023-05-14T08:17:37.660Z,22.58
2023-05-14T08:20:07.499Z,22.59
2023-05-14T08:22:34.974Z,22.91
2023-05-14T08:25:03.806Z,21.72
2023-05-14T08:27:31.215Z,22.37
2023-05-14T08:29:58.697Z,22.81
2023-05-14T08:32:27.587Z,22.07
2023-05-14T08:34:55.180Z,21.13
2023-05-14T08:37:22.573Z,21.21
2023-05-14T08:39:50.368Z,21.27
2023-05-14T08:42:21.882Z,21.71
2023-05-14T08:44:50.787Z,21.56
2023-05-14T08:47:22.261Z,21.72
2023-05-14T08:49:57.993Z,22.67
2023-05-14T08:52:25.520Z,23.18
2023-05-14T08:54:53.900Z,22.91
2023-05-14T08:57:24.657Z,22.99
2023-05-14T08:59:52.174Z,22.93
2023-05-14T09:02:22.978Z,22.93
2023-05-14T09:04:56.097Z,22.68
2023-05-14T09:07:23.722Z,23.47
2023-05-14T09:09:52.430Z,23.64
2023-05-14T09:12:20.221Z,23.53
2023-05-14T09:14:49.359Z,24.10
2023-05-14T09:17:17.133Z,24.16
2023-05-14T09:19:47.199Z,22.70
2023-05-14T09:22:17.937Z,22.66
2023-05-14T09:24:45.515Z,21.72
2023-05-14T09:27:20.463Z,22.32
2023-05-14T09:29:48.814Z,21.92
2023-05-14T09:32:16.215Z,21.13
2023-05-14T09:34:43.663Z,21.76
2023-05-14T09:37:11.120Z,21.55
2023-05-14T09:39:40.031Z,21.83
2023-05-14T09:42:08.330Z,21.68
2023-05-14T09:44:38.028Z,21.38
2023-05-14T09:47:06.035Z,22.25
2023-05-14T09:49:33.494Z,22.10
2023-05-14T09:52:03.549Z,22.01
2023-05-14T09:54:32.884Z,21.64
2023-05-14T09:57:01.827Z,21.31
2023-05-14T09:59:29.328Z,21.78
2023-05-14T10:01:58.371Z,21.82
2023-05-14T10:04:26.219Z,21.40
2023-05-14T10:06:55.054Z,22.12
2023-05-14T10:09:26.317Z,21.21
2023-05-14T10:11:57.345Z,20.94
2023-05-14T10:14:29.526Z,21.01
2023-05-14T10:16:59.836Z,20.76
2023-05-14T10:19:27.696Z,21.12
2023-05-14T10:22:00.762Z,20.49
2023-05-14T10:24:28.702Z,20.51
2023-05-14T10:26:58.688Z,21.29
2023-05-14T10:29:35.226Z,20.73
2023-05-14T10:32:06.023Z,20.54
2023-05-14T10:34:42.568Z,20.59
2023-05-14T10:37:12.026Z,20.90
2023-05-14T10:39:47.937Z,21.25
2023-05-14T10:42:18.782Z,20.82
2023-05-14T10:44:51.600Z,21.06
2023-05-14T10:47:19.822Z,21.41
2023-05-14T10:49:51.952Z,21.41
2023-05-14T10:52:20.717Z,22.48
2023-05-14T10:54:52.705Z,21.39
2023-05-14T10:57:21.103Z,21.08
2023-05-14T10:59:53.157Z,21.56
2023-05-14T11:02:23.226Z,21.79
2023-05-14T11:04:58.445Z,21.61
2023-05-14T11:07:29.765Z,21.88
2023-05-14T11:10:04.504Z,22.63
2023-05-14T11:12:32.842Z,22.62
2023-05-14T11:15:03.839Z,22.22
2023-05-14T11:17:32.461Z,22.52
2023-05-14T11:20:00.625Z,21.87
2023-05-14T11:22:28.275Z,22.14
2023-05-14T11:24:55.742Z,22.16
2023-05-14T11:27:24.010Z,21.80
2023-05-14T11:29:51.982Z,20.99
2023-05-14T11:32:21.208Z,21.60
2023-05-14T11:34:49.112Z,21.97
2023-05-14T11:37:17.921Z,22.29
2023-05-14T11:39:48.568Z,22.73
2023-05-14T11:42:18.491Z,22.98
2023-05-14T11:44:48.854Z,21.77
2023-05-14T11:47:18.272Z,22.36
2023-05-14T11:49:47.860Z,22.78
2023-05-14T11:52:19.102Z,22.64
2023-05-14T11:54:46.582Z,22.04
2023-05-14T11:57:14.923Z,22.33
2023-05-14T11:59:42.491Z,22.23
2023-05-14T12:02:11.638Z,22.47
2023-05-14T12:04:39.696Z,22.21
2023-05-14T12:07:13.561Z,22.56
2023-05-14T12:09:45.155Z,22.12
2023-05-14T12:12:13.626Z,22.28
2023-05-14T12:14:42.792Z,22.44
2023-05-14T12:17:15.976Z,22.78
2023-05-14T12:19:44.374Z,22.58
2023-05-14T12:22:17.083Z,21.61
2023-05-14T12:24:45.279Z,21.87
2023-05-14T12:27:12.946Z,22.73
2023-05-14T12:29:40.453Z,22.38
2023-05-14T12:32:11.111Z,21.72
2023-05-14T12:34:38.943Z,22.41
2023-05-14T12:37:06.592Z,22.25
2023-05-14T12:39:35.718Z,23.09
2023-05-14T12:42:03.454Z,22.86
2023-05-14T12:44:31.278Z,22.31
2023-05-14T12:46:58.867Z,23.06
2023-05-14T12:49:26.447Z,22.49
2023-05-14T12:52:07.772Z,22.60
2023-05-14T12:54:43.675Z,22.11
2023-05-14T12:57:11.293Z,22.14
2023-05-14T12:59:39.448Z,21.76
2023-05-14T13:02:07.877Z,22.33
2023-05-14T13:04:35.423Z,23.24
2023-05-14T13:07:02.989Z,22.68
2023-05-14T13:09:30.401Z,22.49
2023-05-14T13:11:59.234Z,22.27
2023-05-14T13:14:28.069Z,22.78
2023-05-14T13:16:55.614Z,22.50
2023-05-14T13:19:23.089Z,22.58
2023-05-14T13:21:50.469Z,21.90
2023-05-14T13:24:18.027Z,21.73
2023-05-14T13:26:45.490Z,21.93
2023-05-14T13:29:14.474Z,22.69
2023-05-14T13:31:41.865Z,23.02
2023-05-14T13:34:10.232Z,22.58
2023-05-14T13:36:39.568Z,22.97
2023-05-14T13:39:07.100Z,22.62
2023-05-14T13:41:35.707Z,23.07
2023-05-14T13:44:03.109Z,22.88
2023-05-14T13:46:31.951Z,23.02
2023-05-14T13:48:59.450Z,22.85
2023-05-14T13:51:26.946Z,22.91
2023-05-14T13:56:26.903Z,21.89
2023-05-14T13:58:54.343Z,21.93
2023-05-14T14:01:23.278Z,23.05
2023-05-14T14:03:52.720Z,23.66
2023-05-14T14:06:20.787Z,23.31
2023-05-14T14:08:48.235Z,23.46
2023-05-14T14:11:16.800Z,22.94
2023-05-14T14:13:46.442Z,22.92
2023-05-14T14:16:14.282Z,22.45
2023-05-14T14:18:43.162Z,22.23
2023-05-14T14:21:12.415Z,22.12
2023-05-14T14:23:39.810Z,21.92
2023-05-14T14:26:07.262Z,22.86
2023-05-14T14:28:34.652Z,22.55
2023-05-14T14:31:03.036Z,23.46
2023-05-14T14:33:30.450Z,22.81
2023-05-14T14:35:57.865Z,23.41
2023-05-14T14:38:26.760Z,23.46
2023-05-14T14:40:54.229Z,23.73
2023-05-14T14:43:24.712Z,23.34
2023-05-14T14:45:52.246Z,23.42
2023-05-14T14:48:24.299Z,23.55
2023-05-14T14:50:51.937Z,23.49
2023-05-14T14:53:19.464Z,23.42
2023-05-14T14:55:48.505Z,23.53
2023-05-14T14:58:16.111Z,23.47
2023-05-14T15:00:45.591Z,23.61
2023-05-14T15:03:14.990Z,22.80
2023-05-14T15:05:42.740Z,22.46
2023-05-14T15:08:10.413Z,22.24
2023-05-14T15:10:38.563Z,23.13
2023-05-14T15:13:07.758Z,21.80
2023-05-14T15:15:36.471Z,21.76
2023-05-14T15:18:05.223Z,22.07
2023-05-14T15:20:35.775Z,21.44
2023-05-14T15:23:03.650Z,21.43
2023-05-14T15:25:31.138Z,21.58
2023-05-14T15:27:58.598Z,21.90
2023-05-14T15:30:27.338Z,22.61
2023-05-14T15:32:54.871Z,21.63
2023-05-14T15:35:22.719Z,21.54
2023-05-14T15:37:50.494Z,21.62
2023-05-14T15:40:18.038Z,21.85
2023-05-14T15:42:46.936Z,22.42
2023-05-14T15:45:14.862Z,21.41
2023-05-14T15:47:44.979Z,22.20
2023-05-14T15:50:12.634Z,22.13
2023-05-14T15:52:41.523Z,22.02
2023-05-14T15:55:09.824Z,22.17
2023-05-14T15:57:39.765Z,21.24
2023-05-14T16:00:10.801Z,21.72
2023-05-14T16:02:41.344Z,22.04
2023-05-14T16:05:10.736Z,22.34
2023-05-14T16:07:38.456Z,21.88
2023-05-14T16:10:07.103Z,21.89
2023-05-14T16:12:34.778Z,21.26
2023-05-14T16:15:02.205Z,22.14
2023-05-14T16:17:31.484Z,21.86
2023-05-14T16:19:59.904Z,21.61
2023-05-14T16:22:29.279Z,20.93
2023-05-14T16:24:56.799Z,21.38
2023-05-14T16:27:24.272Z,22.05
2023-05-14T16:29:51.711Z,21.88
2023-05-14T16:32:19.336Z,22.02
2023-05-14T16:34:49.812Z,22.39
2023-05-14T16:37:17.327Z,22.13
2023-05-14T16:39:46.144Z,21.89
2023-05-14T16:42:13.597Z,21.71
2023-05-14T16:44:41.130Z,21.74
2023-05-14T16:47:08.519Z,21.84
2023-05-14T16:49:36.012Z,21.22
2023-05-14T16:52:03.413Z,21.64
2023-05-14T16:54:30.873Z,21.57
2023-05-14T16:56:59.644Z,21.15
2023-05-14T16:59:27.095Z,21.62
2023-05-14T17:01:54.570Z,21.80
2023-05-14T17:04:22.758Z,22.60
2023-05-14T17:06:50.219Z,22.41
2023-05-14T17:09:17.938Z,21.74
2023-05-14T17:11:45.541Z,20.97
2023-05-14T17:14:14.286Z,21.17
2023-05-14T17:16:42.356Z,21.35
2023-05-14T17:19:09.962Z,21.24
2023-05-14T17:21:37.444Z,21.28
2023-05-14T17:24:05.205Z,20.49
2023-05-14T17:26:32.726Z,21.05
2023-05-14T17:29:00.138Z,21.27
2023-05-14T17:31:29.281Z,21.73
2023-05-14T17:33:56.774Z,21.86
2023-05-14T17:36:24.466Z,20.97
2023-05-14T17:38:52.419Z,20.93
2023-05-14T17:41:19.901Z,21.40
2023-05-14T17:43:47.387Z,21.50
2023-05-14T17:46:14.901Z,21.57
2023-05-14T17:48:43.737Z,22.12
2023-05-14T17:51:11.213Z,22.37
2023-05-14T17:53:38.715Z,22.28
2023-05-14T17:56:06.417Z,22.05
2023-05-14T17:58:33.880Z,22.02
2023-05-14T18:01:01.363Z,21.88
2023-05-14T18:03:28.802Z,21.36
2023-05-14T18:05:57.560Z,21.53
2023-05-14T18:08:24.971Z,21.66
2023-05-14T18:10:52.417Z,21.01
2023-05-14T18:13:19.895Z,21.57
2023-05-14T18:15:47.400Z,22.02
2023-05-14T18:18:17.061Z,22.11
2023-05-14T18:20:44.513Z,21.40
2023-05-14T18:23:13.349Z,21.53
2023-05-14T18:25:40.780Z,21.29
2023-05-14T18:28:08.331Z,21.31
2023-05-14T18:30:35.987Z,21.43
2023-05-14T18:33:03.686Z,21.63
2023-05-14T18:35:31.547Z,21.49
2023-05-14T18:37:58.989Z,21.47
2023-05-14T18:40:27.713Z,21.35
2023-05-14T18:42:56.626Z,21.42
2023-05-14T18:45:25.013Z,20.90
2023-05-14T18:47:52.987Z,21.27
2023-05-14T18:50:20.505Z,21.43
2023-05-14T18:52:47.944Z,21.55
2023-05-14T18:55:15.379Z,21.63
2023-05-14T18:57:44.128Z,21.75
2023-05-14T19:00:13.100Z,21.39
2023-05-14T19:02:40.653Z,21.49
2023-05-14T19:05:09.115Z,21.39
2023-05-14T19:07:37.739Z,21.40
2023-05-14T19:10:06.111Z,21.60
2023-05-14T19:12:33.913Z,21.11
2023-05-14T19:15:02.708Z,21.56
2023-05-14T19:17:35.507Z,21.56
2023-05-14T19:20:06.045Z,21.50
2023-05-14T19:22:33.465Z,21.33
2023-05-14T19:25:01.355Z,21.04
2023-05-14T19:27:29.090Z,21.47
2023-05-14T19:29:56.924Z,21.37
2023-05-14T19:32:25.714Z,21.38
2023-05-14T19:34:53.120Z,21.31
2023-05-14T19:37:21.266Z,21.35
2023-05-14T19:39:49.736Z,21.27
2023-05-14T19:42:17.200Z,21.20
2023-05-14T19:44:44.646Z,21.09
2023-05-14T19:47:12.251Z,21.02
2023-05-14T19:49:41.162Z,20.98
2023-05-14T19:52:08.609Z,20.97
2023-05-14T19:54:36.164Z,20.77
2023-05-14T19:57:03.737Z,20.77
2023-05-14T19:59:31.554Z,20.72
2023-05-14T20:01:59.075Z,20.72
2023-05-14T20:04:26.652Z,20.52
2023-05-14T20:06:55.438Z,20.51
2023-05-14T20:09:22.877Z,20.49
2023-05-14T20:11:50.441Z,20.55
2023-05-14T20:14:18.042Z,20.34
2023-05-14T20:16:46.955Z,20.33
2023-05-14T20:19:14.657Z,20.22
2023-05-14T20:21:42.202Z,20.15
2023-05-14T20:24:11.093Z,20.03
2023-05-14T20:26:38.549Z,20.01
2023-05-14T20:29:06.120Z,19.97
2023-05-14T20:31:33.563Z,19.87
2023-05-14T20:34:01.043Z,19.97
2023-05-14T20:36:29.680Z,20.17
2023-05-14T20:38:57.509Z,20.04
2023-05-14T20:41:26.300Z,19.87
2023-05-14T20:43:53.735Z,19.78
2023-05-14T20:46:21.249Z,19.75
2023-05-14T20:48:48.881Z,19.52
2023-05-14T20:51:16.319Z,19.48
2023-05-14T20:53:43.718Z,19.54
2023-05-14T20:56:11.200Z,19.35
2023-05-14T20:58:39.969Z,19.34
2023-05-14T21:01:08.019Z,19.37
2023-05-14T21:03:35.657Z,19.25
2023-05-14T21:06:03.614Z,19.31
2023-05-14T21:08:32.783Z,19.43
2023-05-14T21:11:00.258Z,19.30
2023-05-14T21:13:27.706Z,19.30
2023-05-14T21:15:56.540Z,19.27
2023-05-14T21:18:26.605Z,19.35
2023-05-14T21:20:54.415Z,19.37
2023-05-14T21:23:21.840Z,19.30
2023-05-14T21:25:49.357Z,19.26
2023-05-14T21:28:16.829Z,19.24
2023-05-14T21:30:44.254Z,19.14
2023-05-14T21:33:13.134Z,19.17
2023-05-14T21:35:40.683Z,19.24
2023-05-14T21:38:08.824Z,19.03
2023-05-14T21:40:36.503Z,18.95
2023-05-14T21:43:04.226Z,19.01
2023-05-14T21:45:31.696Z,19.04
2023-05-14T21:47:59.437Z,19.30
2023-05-14T21:50:28.488Z,18.94
2023-05-14T21:52:55.919Z,18.98
2023-05-14T21:55:24.846Z,18.96
2023-05-14T21:57:53.139Z,19.21
2023-05-14T22:00:23.447Z,19.26
2023-05-14T22:02:51.756Z,19.12
2023-05-14T22:05:19.540Z,19.14
2023-05-14T22:07:48.642Z,19.00
2023-05-14T22:10:17.071Z,18.84
2023-05-14T22:12:45.380Z,18.81
2023-05-14T22:15:13.887Z,18.72
2023-05-14T22:17:41.756Z,18.70
2023-05-14T22:20:10.497Z,18.73
2023-05-14T22:22:37.981Z,18.56
2023-05-14T22:25:07.607Z,18.41
2023-05-14T22:27:35.137Z,18.38
2023-05-14T22:30:02.598Z,18.27
2023-05-14T22:32:30.142Z,18.40
2023-05-14T22:34:57.723Z,18.30
2023-05-14T22:37:25.165Z,18.26
2023-05-14T22:39:52.632Z,18.21
2023-05-14T22:42:21.586Z,18.17
2023-05-14T22:44:49.106Z,18.22
2023-05-14T22:47:17.052Z,18.18
2023-05-14T22:49:44.527Z,18.11
2023-05-14T22:52:11.946Z,17.91
2023-05-14T22:54:39.478Z,17.96
2023-05-14T22:57:07.161Z,17.61
2023-05-14T22:59:36.066Z,17.88
2023-05-14T23:02:03.766Z,17.93
2023-05-14T23:04:31.531Z,17.87
2023-05-14T23:06:59.284Z,17.76
2023-05-14T23:09:26.711Z,17.54
2023-05-14T23:11:54.145Z,17.72
2023-05-14T23:14:21.566Z,17.68
2023-05-14T23:16:50.465Z,17.75
2023-05-14T23:19:18.086Z,17.74
2023-05-14T23:21:45.703Z,17.74
2023-05-14T23:24:13.154Z,17.65
2023-05-14T23:26:40.693Z,17.62
2023-05-14T23:29:08.156Z,17.57
2023-05-14T23:31:35.780Z,17.54
2023-05-14T23:34:04.587Z,17.51
2023-05-14T23:36:32.469Z,17.49
2023-05-14T23:39:00.606Z,17.46
2023-05-14T23:41:28.061Z,17.31
2023-05-14T23:43:56.077Z,17.30
2023-05-14T23:46:24.008Z,17.21
2023-05-14T23:48:52.224Z,17.24
2023-05-14T23:51:20.973Z,17.42
2023-05-14T23:53:48.355Z,17.34
2023-05-14T23:56:15.854Z,17.11
2023-05-14T23:58:43.396Z,17.16
